Time;durP1;ratioP1;P1;durP2;ratioP2;P2;SDS_P1;SDS_P2;PMS_P1;PMS_P2;Temp;Humidity;BMP_temperature;BMP_pressure;BME280_temperature;BME280_humidity;BME280_pressure;Samples;Min_cycle;Max_cycle;Signal;HPM_P1;HPM_P2
2023/01/19 00:01:30;;;;;;;20.30;3.97;;;0.20;99.90;;;;;;5042751;28;20064;-74
2023/01/19 00:03:58;;;;;;;19.33;4.18;;;2.20;99.90;;;;;;5054268;28;20056;-77
2023/01/19 00:06:26;;;;;;;18.73;4.18;;;1.30;99.90;;;;;;5054475;28;20045;-74
2023/01/19 00:08:54;;;;;;;20.48;4.00;;;0.00;99.90;;;;;;5054495;28;20049;-77
2023/01/19 00:11:21;;;;;;;19.13;4.07;;;2.10;99.90;;;;;;5053330;28;20384;-74
2023/01/19 00:13:49;;;;;;;16.33;4.22;;;0.40;99.90;;;;;;5054326;28;20044;-75
2023/01/19 00:16:18;;;;;;;14.27;3.90;;;0.20;99.90;;;;;;5054400;28;20041;-74
2023/01/19 00:18:46;;;;;;;24.13;4.10;;;0.30;99.90;;;;;;5053568;28;20056;-73
2023/01/19 00:21:14;;;;;;;13.45;3.50;;;0.30;99.90;;;;;;5053595;28;20037;-75
2023/01/19 00:23:46;;;;;;;20.58;4.15;;;0.20;99.90;;;;;;5054388;28;20041;-75
2023/01/19 00:26:17;;;;;;;18.20;3.75;;;0.00;99.90;;;;;;5052469;28;20049;-78
2023/01/19 00:28:45;;;;;;;14.43;3.92;;;0.20;99.90;;;;;;5037302;28;20060;-79
2023/01/19 00:31:12;;;;;;;18.10;4.00;;;0.20;99.90;;;;;;5052745;28;20044;-81
2023/01/19 00:33:40;;;;;;;16.48;4.20;;;0.20;99.90;;;;;;5054443;28;20049;-76
2023/01/19 00:36:08;;;;;;;16.25;4.13;;;2.50;99.90;;;;;;5053397;28;20056;-77
2023/01/19 00:38:37;;;;;;;12.63;3.78;;;0.20;99.90;;;;;;5055749;28;20380;-78
2023/01/19 00:41:05;;;;;;;14.23;3.58;;;0.10;99.90;;;;;;5058058;28;20041;-77
2023/01/19 00:43:32;;;;;;;13.48;4.00;;;0.10;99.90;;;;;;5057854;28;20383;-75
2023/01/19 00:46:00;;;;;;;15.02;3.95;;;1.40;99.90;;;;;;5056173;28;20049;-79
2023/01/19 00:48:28;;;;;;;15.95;3.95;;;2.00;99.90;;;;;;5057446;28;20045;-76
2023/01/19 00:50:55;;;;;;;17.63;3.88;;;0.00;99.90;;;;;;5057188;28;20361;-77
2023/01/19 00:53:23;;;;;;;16.67;4.07;;;0.00;99.90;;;;;;5058047;28;20448;-81
2023/01/19 00:55:50;;;;;;;12.88;3.92;;;0.10;99.90;;;;;;5057932;28;20052;-78
2023/01/19 00:58:18;;;;;;;15.82;3.80;;;0.10;99.90;;;;;;5056945;28;20041;-78
2023/01/19 01:00:45;;;;;;;16.05;3.63;;;0.10;99.90;;;;;;5057046;28;20468;-75
2023/01/19 01:03:13;;;;;;;20.40;4.10;;;2.60;99.90;;;;;;5056931;28;20056;-74
2023/01/19 01:05:41;;;;;;;16.30;4.25;;;0.00;99.90;;;;;;5056781;28;20049;-78
2023/01/19 01:08:08;;;;;;;;;;;0.10;99.90;;;;;;5057277;28;20055;-78
2023/01/19 01:10:36;;;;;;;17.35;3.60;;;0.10;99.90;;;;;;5057710;28;20348;-74
2023/01/19 01:13:03;;;;;;;13.52;3.03;;;0.00;99.90;;;;;;5055651;28;20049;-80
2023/01/19 01:15:52;;;;;;;15.02;3.38;;;-0.30;99.90;;;;;;5057660;28;20041;-79
2023/01/19 01:18:20;;;;;;;9.80;3.33;;;0.00;99.90;;;;;;5039126;28;20049;-76
2023/01/19 01:20:48;;;;;;;;;;;0.00;99.90;;;;;;5057048;28;20056;-80
2023/01/19 01:23:21;;;;;;;14.60;3.20;;;0.00;99.90;;;;;;5040115;28;19927;-75
2023/01/19 01:25:49;;;;;;;19.35;3.47;;;-0.10;99.90;;;;;;5055454;28;20053;-77
2023/01/19 01:28:17;;;;;;;11.93;3.53;;;0.00;99.90;;;;;;5057481;28;20045;-77
2023/01/19 01:30:44;;;;;;;15.93;4.03;;;0.00;99.90;;;;;;5056349;28;20068;-77
2023/01/19 01:33:12;;;;;;;15.68;3.67;;;0.00;99.90;;;;;;5056494;28;20051;-78
2023/01/19 01:35:40;;;;;;;12.07;3.30;;;0.00;99.90;;;;;;5056829;28;20037;-78
2023/01/19 01:38:08;;;;;;;24.65;4.15;;;0.00;99.90;;;;;;5056383;28;20048;-76
2023/01/19 01:40:39;;;;;;;17.33;3.50;;;0.00;99.90;;;;;;5056586;28;20123;-78
2023/01/19 01:43:15;;;;;;;14.30;3.83;;;1.60;99.90;;;;;;5057195;28;20045;-80
2023/01/19 01:45:43;;;;;;;10.43;3.00;;;0.00;99.90;;;;;;5055978;28;20052;-79
2023/01/19 01:48:14;;;;;;;13.32;3.58;;;0.00;99.90;;;;;;5056398;28;20483;-77
2023/01/19 01:53:50;;;;;;;15.20;3.42;;;0.10;99.90;;;;;;5056079;28;20463;-76
2023/01/19 01:56:23;;;;;;;11.68;3.28;;;0.00;99.90;;;;;;5057475;28;20056;-78
2023/01/19 01:58:51;;;;;;;11.23;3.63;;;2.30;99.90;;;;;;5038705;28;20048;-78
2023/01/19 02:04:04;;;;;;;13.90;3.28;;;0.00;99.90;;;;;;5055831;28;20056;-78
2023/01/19 02:06:33;;;;;;;15.07;3.28;;;0.00;99.90;;;;;;5056615;28;20056;-76
2023/01/19 02:14:42;;;;;;;15.23;4.07;;;1.60;99.90;;;;;;5056689;28;20090;-78
2023/01/19 02:17:10;;;;;;;19.27;4.00;;;-0.10;99.90;;;;;;5057139;28;20056;-77
2023/01/19 02:19:41;;;;;;;13.02;3.80;;;-0.10;99.90;;;;;;5054571;28;20063;-79
2023/01/19 02:22:23;;;;;;;12.60;3.58;;;-0.20;99.90;;;;;;5056811;28;20056;-79
2023/01/19 02:24:51;;;;;;;9.57;3.30;;;-0.20;99.90;;;;;;5055166;28;20041;-76
2023/01/19 02:27:19;;;;;;;17.20;4.07;;;-0.30;99.90;;;;;;5056187;28;20419;-77
2023/01/19 02:29:47;;;;;;;14.85;4.15;;;-0.30;99.90;;;;;;5055814;28;20049;-77
2023/01/19 02:32:14;;;;;;;14.50;4.75;;;-0.40;99.90;;;;;;5054456;28;20049;-79
2023/01/19 02:34:42;;;;;;;17.15;3.45;;;-0.40;99.90;;;;;;5055216;28;20380;-75
2023/01/19 02:37:12;;;;;;;16.00;4.05;;;-0.40;99.90;;;;;;5055217;28;20056;-81
2023/01/19 02:39:49;;;;;;;12.40;4.13;;;-0.40;99.90;;;;;;5054202;28;20041;-79
2023/01/19 02:42:24;;;;;;;12.60;3.78;;;-0.40;99.90;;;;;;5055606;28;20052;-79
2023/01/19 02:44:54;;;;;;;11.93;3.30;;;-0.40;99.90;;;;;;5055315;28;20045;-77
2023/01/19 02:47:22;;;;;;;17.48;4.10;;;-0.30;99.90;;;;;;5056322;28;20471;-81
2023/01/19 02:49:57;;;;;;;14.73;3.75;;;-0.40;99.90;;;;;;5055988;28;20352;-78
2023/01/19 02:52:26;;;;;;;15.25;4.05;;;-0.40;99.90;;;;;;5054671;28;20041;-77
2023/01/19 02:55:07;;;;;;;15.52;3.65;;;-0.40;99.90;;;;;;5055189;28;20072;-79
2023/01/19 02:57:42;;;;;;;12.57;3.92;;;-0.50;99.90;;;;;;5054661;28;20049;-81
2023/01/19 03:00:49;;;;;;;15.38;4.13;;;-0.50;99.90;;;;;;5051443;28;20380;-78
2023/01/19 03:03:31;;;;;;;11.60;3.55;;;-0.50;99.90;;;;;;5008562;28;20057;-78
2023/01/19 03:06:10;;;;;;;19.38;4.25;;;0.00;99.90;;;;;;5017290;28;20381;-81
2023/01/19 03:08:54;;;;;;;18.33;4.28;;;-0.50;99.90;;;;;;5018496;28;20049;-80
2023/01/19 03:11:26;;;;;;;13.05;4.43;;;-0.50;99.90;;;;;;5017378;28;20048;-80
2023/01/19 03:14:19;;;;;;;18.10;4.57;;;-0.60;99.90;;;;;;5002071;28;20054;-76
2023/01/19 03:16:53;;;;;;;19.05;4.75;;;-0.60;99.90;;;;;;5018170;28;20060;-75
2023/01/19 03:19:26;;;;;;;15.77;4.50;;;-0.60;99.90;;;;;;5017067;28;20490;-77
2023/01/19 03:21:58;;;;;;;12.02;4.07;;;-0.60;99.90;;;;;;5018486;28;20052;-79
2023/01/19 03:24:29;;;;;;;16.17;4.45;;;-0.60;99.90;;;;;;5034345;28;20045;-77
2023/01/19 03:27:07;;;;;;;20.73;4.82;;;-0.50;99.90;;;;;;5001956;28;20365;-79
2023/01/19 03:29:36;;;;;;;17.65;4.15;;;1.30;99.90;;;;;;5035173;28;20045;-76
2023/01/19 03:32:08;;;;;;;14.93;4.15;;;-0.50;99.90;;;;;;5000546;28;20049;-78
2023/01/19 03:34:37;;;;;;;19.98;4.55;;;0.70;99.90;;;;;;5017961;28;20053;-77
2023/01/19 03:37:08;;;;;;;16.55;4.45;;;-0.60;99.90;;;;;;5017750;28;20056;-80
2023/01/19 03:39:36;;;;;;;19.70;4.68;;;-0.60;99.90;;;;;;5034129;28;20049;-79
2023/01/19 03:42:08;;;;;;;13.77;4.45;;;-0.50;99.90;;;;;;5017896;28;20061;-76
2023/01/19 03:44:37;;;;;;;17.88;4.88;;;-0.60;99.90;;;;;;5016916;28;20075;-78
2023/01/19 03:47:07;;;;;;;17.05;4.63;;;0.00;99.90;;;;;;5035021;28;20049;-78
2023/01/19 03:49:36;;;;;;;16.73;4.70;;;-0.50;99.90;;;;;;5017595;28;20054;-79
2023/01/19 03:52:04;;;;;;;21.02;4.35;;;-0.60;99.90;;;;;;5016460;28;20057;-81
2023/01/19 03:54:32;;;;;;;19.92;4.40;;;-0.60;99.90;;;;;;5034629;28;20463;-76
2023/01/19 03:56:59;;;;;;;16.55;4.60;;;-0.60;99.90;;;;;;5034750;28;20038;-79
2023/01/19 03:59:27;;;;;;;19.98;4.65;;;-0.70;99.90;;;;;;5016437;28;20044;-78
2023/01/19 04:01:54;;;;;;;19.83;5.10;;;-0.70;99.90;;;;;;5034679;28;20364;-81
2023/01/19 04:04:22;;;;;;;18.27;4.53;;;-0.80;99.90;;;;;;5016399;28;20396;-76
2023/01/19 04:06:50;;;;;;;18.92;4.45;;;-0.90;99.90;;;;;;5017640;28;20057;-75
2023/01/19 04:09:17;;;;;;;16.00;4.32;;;-0.90;99.90;;;;;;5034506;28;20065;-76
2023/01/19 04:11:46;;;;;;;17.67;4.55;;;-0.90;99.90;;;;;;5033763;28;20357;-76
2023/01/19 04:14:14;;;;;;;17.83;4.30;;;-1.00;99.90;;;;;;5034766;28;20045;-79
2023/01/19 04:16:41;;;;;;;17.75;4.78;;;-1.00;99.90;;;;;;5034784;28;20472;-79
2023/01/19 04:19:08;;;;;;;22.10;4.82;;;-1.00;99.90;;;;;;5016290;28;20373;-77
2023/01/19 04:21:36;;;;;;;17.45;4.47;;;-1.10;99.90;;;;;;5034452;28;20072;-77
2023/01/19 04:24:04;;;;;;;16.20;4.30;;;-1.10;99.90;;;;;;4999968;28;20050;-78
2023/01/19 04:26:31;;;;;;;14.98;4.32;;;-1.10;99.90;;;;;;5034644;28;20049;-80
2023/01/19 04:28:59;;;;;;;16.83;4.70;;;-1.10;99.90;;;;;;5034608;28;20049;-77
2023/01/19 04:31:26;;;;;;;13.32;4.32;;;-1.10;99.90;;;;;;5016450;28;20054;-78
2023/01/19 04:33:55;;;;;;;17.40;5.28;;;-1.10;99.90;;;;;;5034285;28;20049;-78
2023/01/19 04:36:22;;;;;;;17.83;4.68;;;-1.10;99.90;;;;;;5017102;28;20469;-78
2023/01/19 04:38:50;;;;;;;15.77;4.65;;;-1.10;99.90;;;;;;5000022;28;20049;-81
2023/01/19 04:41:17;;;;;;;14.80;4.45;;;-1.10;99.90;;;;;;5034633;28;20512;-77
2023/01/19 04:43:46;;;;;;;17.75;4.32;;;-1.10;99.90;;;;;;5034284;28;20060;-78
2023/01/19 04:46:14;;;;;;;21.63;5.57;;;-1.10;99.90;;;;;;5015794;28;20480;-78
2023/01/19 04:48:41;;;;;;;15.63;4.97;;;-1.20;99.90;;;;;;5034224;28;20400;-80
2023/01/19 04:51:09;;;;;;;24.48;4.93;;;-1.10;99.90;;;;;;5033087;28;20042;-79
2023/01/19 04:53:36;;;;;;;19.88;5.03;;;-1.20;99.90;;;;;;5034156;28;20053;-79
2023/01/19 04:56:04;;;;;;;17.13;4.93;;;-1.10;99.90;;;;;;5034461;28;20057;-79
2023/01/19 04:58:31;;;;;;;18.85;4.93;;;-1.20;99.90;;;;;;5033428;28;20045;-79
2023/01/19 05:00:59;;;;;;;17.58;4.72;;;-1.20;99.90;;;;;;5016558;28;20068;-80
2023/01/19 05:03:26;;;;;;;22.25;5.05;;;-1.30;99.90;;;;;;5000490;28;20376;-80
2023/01/19 05:05:54;;;;;;;18.65;4.72;;;-1.20;99.90;;;;;;5033048;28;20045;-79
2023/01/19 05:08:23;;;;;;;;;;;-1.20;99.90;;;;;;5017643;28;20045;-79
2023/01/19 05:10:50;;;;;;;23.42;4.75;;;-0.90;99.90;;;;;;5032897;28;19921;-78
2023/01/19 05:13:18;;;;;;;20.70;4.47;;;-0.50;99.90;;;;;;5034423;28;20049;-76
2023/01/19 05:15:45;;;;;;;22.20;5.05;;;-1.20;99.90;;;;;;5016793;28;20056;-76
2023/01/19 05:18:13;;;;;;;23.00;5.68;;;-1.20;99.90;;;;;;5033050;28;20049;-78
2023/01/19 05:20:41;;;;;;;19.00;5.70;;;-1.20;99.90;;;;;;5016784;28;20042;-77
2023/01/19 05:23:08;;;;;;;25.63;5.60;;;-1.10;99.90;;;;;;5017069;28;20053;-79
2023/01/19 05:25:35;;;;;;;14.90;4.95;;;-1.00;99.90;;;;;;5018102;28;20503;-79
2023/01/19 05:28:03;;;;;;;17.58;5.47;;;-1.00;99.90;;;;;;5037600;28;20368;-76
2023/01/19 05:30:31;;;;;;;21.55;6.07;;;-0.90;99.90;;;;;;5020281;28;20050;-77
2023/01/19 05:32:58;;;;;;;17.85;5.07;;;-0.80;99.90;;;;;;5018872;28;20053;-76
2023/01/19 05:35:26;;;;;;;;;;;-0.80;99.90;;;;;;5037655;28;20064;-80
2023/01/19 05:38:03;;;;;;;19.27;4.78;;;-0.90;99.90;;;;;;5020309;28;20276;-79
2023/01/19 05:40:30;;;;;;;15.90;4.40;;;-0.70;99.90;;;;;;5019938;28;20046;-80
2023/01/19 05:42:59;;;;;;;18.48;5.45;;;-0.70;99.90;;;;;;5037359;28;20045;-79
2023/01/19 05:45:27;;;;;;;18.88;5.47;;;-0.70;99.90;;;;;;5035986;28;20045;-80
2023/01/19 05:47:55;;;;;;;25.90;5.78;;;-0.70;99.90;;;;;;5020138;28;20057;-77
2023/01/19 05:50:22;;;;;;;22.20;5.28;;;-0.80;99.90;;;;;;5020011;28;20045;-77
2023/01/19 05:52:52;;;;;;;20.45;5.65;;;-0.70;99.90;;;;;;5035903;28;20060;-77
2023/01/19 05:55:20;;;;;;;17.40;5.43;;;-0.70;99.90;;;;;;5037017;28;20042;-80
2023/01/19 05:57:47;;;;;;;;;;;-0.70;99.90;;;;;;5019707;28;20046;-79
2023/01/19 06:00:15;;;;;;;20.27;5.28;;;-0.70;99.90;;;;;;5037034;28;19921;-78
2023/01/19 06:02:43;;;;;;;13.55;5.00;;;-0.70;99.90;;;;;;5003655;28;20049;-77
2023/01/19 06:05:10;;;;;;;20.83;5.60;;;-0.70;99.90;;;;;;5002366;28;20050;-77
2023/01/19 06:07:38;;;;;;;17.55;5.72;;;-0.70;99.90;;;;;;5019825;28;20056;-77
2023/01/19 06:10:06;;;;;;;20.40;5.80;;;-0.80;99.90;;;;;;5036789;28;20045;-79
2023/01/19 06:12:34;;;;;;;28.25;5.95;;;-0.70;99.90;;;;;;5018103;28;20069;-79
2023/01/19 06:15:02;;;;;;;21.30;5.90;;;-0.70;99.90;;;;;;5019698;28;20041;-76
2023/01/19 06:17:31;;;;;;;15.65;5.43;;;-0.80;99.90;;;;;;5035953;28;20048;-80
2023/01/19 06:19:58;;;;;;;24.13;6.03;;;-0.90;99.90;;;;;;5019367;28;20468;-79
2023/01/19 06:22:26;;;;;;;23.63;5.57;;;-0.90;99.90;;;;;;5019117;28;20045;-79
2023/01/19 06:24:53;;;;;;;18.00;5.45;;;-0.90;99.90;;;;;;5002220;28;20384;-76
2023/01/19 06:27:21;;;;;;;23.65;5.50;;;-1.10;99.90;;;;;;5019440;28;20052;-80
2023/01/19 06:29:49;;;;;;;18.35;5.53;;;-0.90;99.90;;;;;;5019163;28;20045;-81
2023/01/19 06:32:16;;;;;;;24.20;6.15;;;-1.00;99.90;;;;;;5035234;28;20056;-77
2023/01/19 06:34:45;;;;;;;24.90;6.32;;;-1.00;99.90;;;;;;5019044;28;20472;-77
2023/01/19 06:37:15;;;;;;;22.25;5.25;;;-1.00;99.90;;;;;;5035923;28;20052;-78
2023/01/19 06:39:44;;;;;;;20.27;5.57;;;-1.10;99.90;;;;;;5017601;28;20088;-77
2023/01/19 06:42:11;;;;;;;18.35;5.70;;;-1.00;99.90;;;;;;5018706;28;20373;-81
2023/01/19 06:44:46;;;;;;;17.58;6.18;;;-1.10;99.90;;;;;;5017805;28;20064;-77
2023/01/19 06:47:14;;;;;;;24.67;6.70;;;-1.10;99.90;;;;;;5018831;28;20068;-78
2023/01/19 06:49:43;;;;;;;20.13;6.28;;;-1.00;99.90;;;;;;5035744;28;20056;-76
2023/01/19 06:52:14;;;;;;;17.33;6.50;;;-1.10;99.90;;;;;;5017326;28;20056;-81
2023/01/19 06:54:43;;;;;;;22.00;6.22;;;-1.10;99.90;;;;;;5035684;28;20376;-77
2023/01/19 06:57:13;;;;;;;18.80;6.80;;;-1.10;99.90;;;;;;5018793;28;20381;-77
2023/01/19 06:59:40;;;;;;;17.67;6.00;;;-1.20;99.90;;;;;;5034629;28;20049;-78
2023/01/19 07:02:10;;;;;;;31.05;6.50;;;-1.10;99.90;;;;;;5035633;28;20053;-80
2023/01/19 07:04:55;;;;;;;22.92;6.72;;;-1.10;99.90;;;;;;5017561;28;20061;-81
2023/01/19 07:07:24;;;;;;;28.92;6.55;;;0.90;99.90;;;;;;5018618;28;20053;-79
2023/01/19 07:09:51;;;;;;;25.42;6.68;;;-1.10;99.90;;;;;;5035474;28;20045;-79
2023/01/19 07:12:21;;;;;;;20.27;7.05;;;-1.10;99.90;;;;;;5016852;28;20480;-79
2023/01/19 07:14:49;;;;;;;25.77;8.23;;;-1.40;99.90;;;;;;5017988;28;20049;-79
2023/01/19 07:17:16;;;;;;;26.23;10.35;;;-1.10;99.90;;;;;;5035596;28;20372;-80
2023/01/19 07:19:45;;;;;;;23.17;7.97;;;-1.10;99.90;;;;;;5034238;28;20049;-78
2023/01/19 07:22:13;;;;;;;25.92;8.32;;;-1.10;99.90;;;;;;5018312;28;20042;-78
2023/01/19 07:24:40;;;;;;;23.02;8.18;;;-1.20;99.90;;;;;;5034180;28;20374;-80
2023/01/19 07:27:10;;;;;;;24.48;8.10;;;-1.10;99.90;;;;;;5035074;28;20045;-79
2023/01/19 07:29:38;;;;;;;28.27;8.88;;;-1.10;99.90;;;;;;5018546;28;20052;-81
2023/01/19 07:32:06;;;;;;;33.80;9.70;;;-1.10;99.90;;;;;;5033981;28;20045;-77
2023/01/19 07:34:34;;;;;;;36.25;9.10;;;-1.10;99.90;;;;;;5034993;28;20049;-76
2023/01/19 07:37:03;;;;;;;22.27;8.20;;;-1.10;99.90;;;;;;5018079;28;20049;-78
2023/01/19 07:39:35;;;;;;;28.48;8.90;;;-1.10;99.90;;;;;;5000408;28;20056;-79
2023/01/19 07:42:06;;;;;;;20.20;7.85;;;-1.10;99.90;;;;;;5017639;28;20068;-79
2023/01/19 07:44:36;;;;;;;22.13;8.13;;;-1.20;99.90;;;;;;5016539;28;20057;-80
2023/01/19 07:47:06;;;;;;;21.48;7.90;;;0.10;99.90;;;;;;5034179;28;20045;-79
2023/01/19 07:49:55;;;;;;;16.67;7.57;;;-1.10;99.90;;;;;;5018765;28;20472;-80
2023/01/19 07:52:25;;;;;;;27.58;7.95;;;0.10;99.90;;;;;;5033915;28;20376;-80
2023/01/19 07:54:57;;;;;;;21.48;7.72;;;-1.20;99.90;;;;;;5018280;28;20049;-81
2023/01/19 07:57:48;;;;;;;23.15;7.88;;;0.30;99.90;;;;;;5017189;28;20053;-81
2023/01/19 08:03:12;;;;;;;20.10;7.68;;;-1.40;99.90;;;;;;5053929;28;20383;-81
2023/01/19 08:05:39;;;;;;;24.27;8.18;;;0.10;99.90;;;;;;5053102;28;20483;-77
2023/01/19 08:08:11;;;;;;;25.65;7.07;;;0.70;99.90;;;;;;5054813;28;20392;-80
2023/01/19 08:10:39;;;;;;;21.90;7.57;;;-2.40;99.90;;;;;;5053493;28;20053;-82
2023/01/19 08:13:10;;;;;;;28.25;6.88;;;-0.10;99.90;;;;;;5037511;28;20052;-79
2023/01/19 08:15:40;;;;;;;18.75;7.57;;;-1.50;99.90;;;;;;5053625;28;20056;-81
2023/01/19 08:18:13;;;;;;;27.13;7.22;;;-1.40;99.90;;;;;;5052760;28;20048;-81
2023/01/19 08:20:44;;;;;;;24.50;6.43;;;-2.00;99.90;;;;;;5053756;28;20048;-81
2023/01/19 08:23:16;;;;;;;30.33;9.77;;;-0.40;99.90;;;;;;5054287;28;20053;-79
2023/01/19 08:25:44;;;;;;;30.67;8.77;;;0.20;99.90;;;;;;5053487;28;20060;-80
2023/01/19 08:28:16;;;;;;;45.53;16.00;;;-1.50;99.90;;;;;;5053599;28;20048;-86
2023/01/19 08:30:44;;;;;;;42.42;13.98;;;-1.20;99.90;;;;;;5053709;28;20059;-84
2023/01/19 08:33:12;;;;;;;;;;;-0.50;99.90;;;;;;5053771;28;20049;-80
2023/01/19 08:35:42;;;;;;;20.85;6.72;;;-1.10;99.90;;;;;;5054042;28;19920;-82
2023/01/19 08:38:14;;;;;;;31.73;9.15;;;0.60;99.90;;;;;;5053375;28;20041;-79
2023/01/19 08:40:42;;;;;;;38.00;9.02;;;-1.10;99.90;;;;;;5053109;28;20376;-83
2023/01/19 08:43:12;;;;;;;34.50;10.50;;;-1.10;99.90;;;;;;5054552;28;20053;-78
2023/01/19 08:45:50;;;;;;;34.30;10.43;;;1.40;99.90;;;;;;5052976;28;20064;-82
2023/01/19 08:48:22;;;;;;;35.25;9.30;;;0.70;99.90;;;;;;5053433;28;20049;-84
2023/01/19 08:50:50;;;;;;;26.75;10.05;;;-1.00;99.90;;;;;;5053224;28;20053;-81
2023/01/19 08:53:21;;;;;;;29.27;9.40;;;0.50;99.90;;;;;;5053353;28;20041;-82
2023/01/19 08:56:04;;;;;;;29.33;8.57;;;-1.00;99.90;;;;;;5053753;28;20045;-85
2023/01/19 08:58:38;;;;;;;27.17;8.57;;;-0.50;99.90;;;;;;5052544;28;20045;-81
2023/01/19 09:01:13;;;;;;;28.50;8.52;;;1.60;99.90;;;;;;5040654;28;20068;-82
2023/01/19 09:03:42;;;;;;;21.45;7.63;;;-0.40;99.90;;;;;;5040576;28;20056;-81
2023/01/19 09:06:13;;;;;;;27.90;7.72;;;1.00;99.90;;;;;;5056096;28;20045;-80
2023/01/19 09:08:43;;;;;;;29.50;7.72;;;1.00;99.90;;;;;;5057162;28;20048;-80
2023/01/19 09:11:15;;;;;;;22.95;6.80;;;0.40;99.90;;;;;;5057535;28;20052;-79
2023/01/19 09:13:43;;;;;;;26.83;8.07;;;-1.90;99.90;;;;;;5040424;28;20049;-82
2023/01/19 09:16:12;;;;;;;26.30;7.88;;;1.10;99.90;;;;;;5057807;28;20045;-79
2023/01/19 09:18:40;;;;;;;18.50;7.13;;;0.80;99.90;;;;;;5039893;28;20037;-83
2023/01/19 09:21:09;;;;;;;21.63;6.75;;;0.70;99.90;;;;;;5057454;28;20348;-81
2023/01/19 09:23:55;;;;;;;21.25;6.82;;;1.50;99.90;;;;;;5057156;28;20041;-81
2023/01/19 09:26:24;;;;;;;22.98;6.82;;;0.90;99.90;;;;;;5055704;28;20475;-81
2023/01/19 09:28:51;;;;;;;25.65;6.97;;;-1.70;99.90;;;;;;5057874;28;20055;-82
2023/01/19 09:31:22;;;;;;;21.95;6.97;;;1.00;99.90;;;;;;5056075;28;20053;-78
2023/01/19 09:33:50;;;;;;;30.75;8.60;;;1.00;99.90;;;;;;5057222;28;20071;-78
2023/01/19 09:36:18;;;;;;;27.95;9.05;;;-1.10;99.90;;;;;;5057003;28;20045;-84
2023/01/19 09:38:45;;;;;;;24.75;8.77;;;-1.00;99.90;;;;;;5056030;28;20052;-79
2023/01/19 09:41:20;;;;;;;23.90;7.93;;;-0.30;99.90;;;;;;5023833;28;20041;-81
2023/01/19 09:43:59;;;;;;;29.27;8.32;;;-0.80;99.90;;;;;;5056476;28;20076;-81
2023/01/19 09:46:38;;;;;;;;;;;-0.80;99.90;;;;;;5057073;28;20048;-83
2023/01/19 09:49:19;;;;;;;19.38;6.53;;;-0.70;99.90;;;;;;5075501;28;19927;-83
2023/01/19 09:51:49;;;;;;;21.30;7.50;;;-0.80;99.90;;;;;;5076690;28;20044;-80
2023/01/19 09:54:34;;;;;;;24.52;7.53;;;-0.70;99.90;;;;;;5076554;28;20448;-78
2023/01/19 09:57:05;;;;;;;27.00;7.47;;;-0.70;99.90;;;;;;5076098;28;20037;-80
2023/01/19 09:59:33;;;;;;;34.30;7.78;;;-0.60;99.90;;;;;;5058166;28;20371;-78
2023/01/19 10:02:18;;;;;;;;;;;-0.60;99.90;;;;;;5076013;28;20052;-81
2023/01/19 10:05:00;;;;;;;28.60;7.38;;;-0.50;99.90;;;;;;5074995;28;19928;-82
2023/01/19 10:07:51;;;;;;;25.23;8.45;;;-0.50;99.90;;;;;;5076526;28;20475;-79
2023/01/19 10:10:28;;;;;;;26.05;7.13;;;-0.40;99.90;;;;;;5075231;28;20044;-80
2023/01/19 10:13:02;;;;;;;33.33;8.90;;;0.10;99.90;;;;;;5075683;28;20053;-78
2023/01/19 10:15:39;;;;;;;32.90;7.70;;;-0.40;99.90;;;;;;5076431;28;20052;-79
2023/01/19 10:18:30;;;;;;;25.35;7.25;;;-0.30;99.90;;;;;;5074828;28;20051;-77
2023/01/19 10:21:03;;;;;;;25.83;7.63;;;-0.20;99.90;;;;;;5076378;28;20057;-80
2023/01/19 10:24:06;;;;;;;26.60;7.63;;;-0.10;99.90;;;;;;5058786;28;20056;-76
2023/01/19 10:26:42;;;;;;;26.70;7.40;;;0.00;99.90;;;;;;5075292;28;20053;-78
2023/01/19 10:29:23;;;;;;;24.65;8.18;;;0.10;99.90;;;;;;5075989;28;20375;-78
2023/01/19 10:31:56;;;;;;;25.35;9.50;;;0.20;99.90;;;;;;5075248;28;20463;-77
2023/01/19 10:34:24;;;;;;;36.95;12.32;;;0.30;99.90;;;;;;5076000;28;20055;-77
2023/01/19 10:37:01;;;;;;;42.58;16.60;;;0.40;99.90;;;;;;5075830;28;20068;-76
2023/01/19 10:39:33;;;;;;;29.48;11.55;;;0.40;99.90;;;;;;5074607;28;20037;-76
2023/01/19 10:42:08;;;;;;;27.58;9.95;;;0.40;99.90;;;;;;5075027;28;20044;-75
2023/01/19 10:44:36;;;;;;;28.63;12.15;;;0.40;99.90;;;;;;5074772;28;20040;-76
2023/01/19 10:47:05;;;;;;;26.83;10.02;;;0.50;99.90;;;;;;5075924;28;20044;-76
2023/01/19 10:49:41;;;;;;;24.85;9.98;;;0.60;99.90;;;;;;5075764;28;20048;-77
2023/01/19 10:52:32;;;;;;;28.58;11.77;;;0.50;99.90;;;;;;5074864;28;20045;-76
2023/01/19 10:55:06;;;;;;;26.48;6.75;;;0.70;99.90;;;;;;5044472;28;20048;-76
2023/01/19 10:57:37;;;;;;;19.52;6.03;;;0.70;99.90;;;;;;5073744;28;20048;-76
2023/01/19 11:00:25;;;;;;;23.77;6.32;;;0.80;99.90;;;;;;5071712;28;20044;-76
2023/01/19 11:02:53;;;;;;;21.38;4.95;;;0.80;99.90;;;;;;5055868;28;20451;-76
2023/01/19 11:05:30;;;;;;;17.88;5.50;;;3.80;99.90;;;;;;5053832;28;20049;-76
2023/01/19 11:07:58;;;;;;;18.00;5.00;;;0.90;99.90;;;;;;5055368;28;20059;-76
2023/01/19 11:10:27;;;;;;;;;;;1.50;99.90;;;;;;5038325;28;20044;-76
2023/01/19 11:13:00;;;;;;;17.88;5.22;;;1.00;99.90;;;;;;5036771;28;19921;-76
2023/01/19 11:15:43;;;;;;;20.63;4.85;;;0.90;99.90;;;;;;5037787;28;20067;-76
2023/01/19 11:18:28;;;;;;;17.35;4.72;;;1.00;99.90;;;;;;5054339;28;20045;-75
2023/01/19 11:21:02;;;;;;;18.42;4.30;;;1.10;99.90;;;;;;5037917;28;20045;-76
2023/01/19 11:23:32;;;;;;;20.75;4.80;;;2.80;99.90;;;;;;5054253;28;20376;-75
2023/01/19 11:26:03;;;;;;;26.02;7.07;;;1.20;99.90;;;;;;5054452;28;20056;-73
2023/01/19 11:28:38;;;;;;;20.60;5.90;;;1.40;99.90;;;;;;5054792;28;20045;-76
2023/01/19 11:31:09;;;;;;;18.52;4.80;;;2.00;99.90;;;;;;5054128;28;20053;-76
2023/01/19 11:33:46;;;;;;;18.92;4.70;;;1.50;99.90;;;;;;5021277;28;20049;-76
2023/01/19 11:36:25;;;;;;;20.88;4.70;;;1.60;99.90;;;;;;5054962;28;20052;-75
2023/01/19 11:39:00;;;;;;;22.10;4.28;;;1.70;99.90;;;;;;5053996;28;20384;-74
2023/01/19 11:41:30;;;;;;;11.93;3.05;;;3.30;99.90;;;;;;5054754;28;20383;-77
2023/01/19 11:44:35;;;;;;;17.60;3.33;;;1.80;99.90;;;;;;5037093;28;20049;-75
2023/01/19 11:47:10;;;;;;;19.70;4.07;;;1.90;99.90;;;;;;4971678;28;20053;-76
2023/01/19 11:49:48;;;;;;;10.60;3.08;;;2.00;99.90;;;;;;4995901;28;20427;-74
2023/01/19 11:52:18;;;;;;;12.27;3.40;;;2.00;99.90;;;;;;5014428;28;20042;-77
2023/01/19 11:54:54;;;;;;;16.92;4.03;;;2.10;99.90;;;;;;5037886;28;20045;-75
2023/01/19 11:57:22;;;;;;;21.23;4.00;;;2.10;99.90;;;;;;5053957;28;20043;-78
2023/01/19 11:59:50;;;;;;;19.90;3.47;;;2.40;99.90;;;;;;5037155;28;20504;-78
2023/01/19 12:02:25;;;;;;;17.67;3.28;;;2.70;99.90;;;;;;5054905;28;20048;-75
2023/01/19 12:05:03;;;;;;;17.67;2.60;;;2.40;99.90;;;;;;5036794;28;20045;-76
2023/01/19 12:07:34;;;;;;;16.35;3.03;;;2.50;99.90;;;;;;5039935;28;20049;-74
2023/01/19 12:10:30;;;;;;;20.13;3.70;;;2.70;99.90;;;;;;5017539;28;20045;-77
2023/01/19 12:12:58;;;;;;;18.92;3.83;;;2.70;99.90;;;;;;5010977;28;20068;-76
2023/01/19 12:15:35;;;;;;;15.25;3.53;;;2.70;99.90;;;;;;5001475;28;20053;-74
2023/01/19 12:18:08;;;;;;;14.60;3.42;;;2.70;99.90;;;;;;5016704;28;20060;-74
2023/01/19 12:20:43;;;;;;;12.63;3.13;;;2.80;99.90;;;;;;5034809;28;20044;-76
2023/01/19 12:23:20;;;;;;;19.30;3.55;;;2.90;99.90;;;;;;5034463;28;20048;-76
2023/01/19 12:26:26;;;;;;;14.50;3.42;;;3.00;99.90;;;;;;5033752;28;20065;-77
2023/01/19 12:29:00;;;;;;;17.48;3.45;;;3.10;99.90;;;;;;5034624;28;20046;-74
2023/01/19 12:31:30;;;;;;;13.88;2.58;;;3.20;99.90;;;;;;5000162;28;20064;-76
2023/01/19 12:34:24;;;;;;;15.43;2.60;;;3.20;99.90;;;;;;5036204;28;20045;-74
2023/01/19 12:36:57;;;;;;;18.30;2.63;;;3.20;99.90;;;;;;5037694;28;20064;-74
2023/01/19 12:39:27;;;;;;;14.02;3.08;;;3.20;99.90;;;;;;5037820;28;20041;-73
2023/01/19 12:42:14;;;;;;;13.38;2.53;;;2.80;99.90;;;;;;5020057;28;20733;-71
2023/01/19 12:44:44;;;;;;;13.63;2.80;;;3.30;99.90;;;;;;5017360;28;20050;-70
2023/01/19 12:47:15;;;;;;;12.80;2.80;;;3.20;99.90;;;;;;5001479;28;20045;-71
2023/01/19 12:49:52;;;;;;;9.38;2.35;;;2.70;99.90;;;;;;5001154;28;20050;-72
2023/01/19 12:52:56;;;;;;;11.25;2.90;;;2.90;99.90;;;;;;5000162;28;20396;-72
2023/01/19 12:55:37;;;;;;;10.55;3.00;;;3.30;99.90;;;;;;4987070;28;20052;-74
2023/01/19 12:58:23;;;;;;;14.60;2.90;;;3.30;99.90;;;;;;5016992;28;20046;-73
2023/01/19 13:01:12;;;;;;;10.07;2.83;;;2.90;99.90;;;;;;5015016;28;20485;-74
2023/01/19 13:03:44;;;;;;;11.35;3.30;;;3.10;99.90;;;;;;5038069;28;20060;-71
2023/01/19 13:06:12;;;;;;;9.93;2.75;;;3.30;99.90;;;;;;5037028;28;20052;-74
2023/01/19 13:08:59;;;;;;;14.90;2.80;;;4.70;99.90;;;;;;5020619;28;20054;-72
2023/01/19 13:11:27;;;;;;;10.75;3.38;;;3.40;99.90;;;;;;5036898;28;20045;-73
2023/01/19 13:14:00;;;;;;;12.65;2.97;;;3.70;99.90;;;;;;5037570;28;20054;-73
2023/01/19 13:16:28;;;;;;;12.07;3.45;;;3.50;99.90;;;;;;5040194;28;20042;-73
2023/01/19 13:19:13;;;;;;;8.35;3.42;;;3.00;99.90;;;;;;5039054;28;20049;-70
2023/01/19 13:21:46;;;;;;;8.00;3.05;;;3.60;99.90;;;;;;5046812;28;20380;-77